Data for 11/05/2013

Time Sea-Level Adjusted Pressure Absolute Pressure Temperature Relative Humidity Dew Point   
(mb) (inHg) (mb) (inHg) (C) (F) (%) (C) (F)
00:05 1019 30.09 848 25.04 -6.1 21 77 -9.5 14.8
00:10 1019 30.09 848 25.04 -6.1 21 77 -9.5 14.9
00:15 1019 30.09 848 25.04 -6.1 21 77 -9.6 14.8
00:20 1019 30.09 848 25.04 -6.1 21.1 77 -9.5 14.9
00:25 1019 30.09 848 25.04 -6.2 20.8 77 -9.7 14.6
00:30 1019 30.09 848 25.04 -6.3 20.7 77 -9.6 14.7
00:35 1019 30.09 848 25.04 -6.4 20.4 78 -9.6 14.7
00:40 1019 30.09 848 25.04 -6.4 20.5 76 -9.9 14.3
00:45 1019 30.09 848 25.04 -6 21.2 75 -9.7 14.5
00:50 1019 30.09 848 25.04 -6 21.2 76 -9.6 14.7
00:55 1019 30.09 848 25.04 -6.1 21.1 76 -9.6 14.6
01:00 1019 30.09 848 25.04 -6.1 21.1 76 -9.6 14.8
01:05 1019 30.09 848 25.04 -6.1 21.1 77 -9.5 14.8
01:10 1019 30.09 848 25.04 -6.1 21 77 -9.5 14.8
01:15 1019 30.09 848 25.04 -6.2 20.9 77 -9.5 14.9
01:20 1019 30.09 848 25.04 -6.1 21 77 -9.6 14.7
01:25 1019 30.09 848 25.04 -5.9 21.3 75 -9.7 14.5
01:30 1019 30.09 848 25.04 -5.7 21.7 75 -9.5 14.9
01:35 1019 30.09 848 25.04 -5.8 21.6 76 -9.4 15.2
01:40 1019 30.09 848 25.04 -5.9 21.4 76 -9.4 15
01:45 1019 30.09 848 25.04 -5.9 21.4 75 -9.6 14.8
01:50 1019 30.09 848 25.04 -5.8 21.6 76 -9.3 15.2
01:55 1019 30.09 848 25.04 -5.8 21.7 77 -9.2 15.4
02:00 1019 30.09 848 25.04 -5.7 21.7 78 -9 15.7
02:05 1019 30.09 848 25.04 -5.9 21.4 78 -9.2 15.4
02:10 1019 30.09 848 25.04 -6 21.3 79 -9 15.9
02:15 1019 30.09 848 25.04 -6.1 21 80 -9.1 15.7
02:20 1019 30.09 848 25.04 -6.2 20.9 80 -9.1 15.7
02:25 1019 30.09 848 25.04 -6.1 21 80 -9 15.7
02:30 1019 30.09 848 25.04 -6.1 21 80 -9 15.9
02:35 1019 30.09 848 25.04 -6.1 21 79 -9.2 15.4
02:40 1019 30.09 848 25.04 -5.7 21.7 77 -9.1 15.7
02:45 1019 30.09 848 25.04 -5.7 21.8 78 -9 15.9
02:50 1019 30.09 848 25.04 -5.7 21.8 78 -8.9 16.1
02:55 1019 30.09 848 25.04 -5.7 21.8 78 -8.9 15.9
03:00 1019 30.09 848 25.04 -5.7 21.7 79 -8.7 16.3
03:05 1019 30.09 848 25.04 -5.6 22 79 -8.7 16.3
03:10 1019 30.09 848 25.04 -5.4 22.3 81 -8.2 17.2
03:15 1019 30.09 848 25.04 -5.4 22.3 80 -8.3 17
03:20 1019 30.09 848 25.04 -5.4 22.4 81 -8.2 17.3
03:25 1019 30.09 848 25.04 -5.4 22.2 82 -8 17.6
03:30 1019 30.09 848 25.04 -5.5 22.2 83 -7.9 17.8
03:35 1019 30.09 848 25.04 -5.5 22.1 82 -8.1 17.5
03:40 1019 30.09 848 25.04 -5.5 22.1 83 -8 17.7
03:45 1019 30.09 848 25.04 -5.6 22 83 -8 17.7
03:50 1019 30.09 848 25.04 -5.5 22.1 84 -7.8 17.9
03:55 1019 30.09 848 25.04 -5.4 22.3 85 -7.6 18.3
04:00 1019 30.09 848 25.04 -5.2 22.6 85 -7.4 18.6
04:05 1019 30.09 848 25.04 -5.2 22.7 83 -7.7 18.1
04:10 1019 30.09 848 25.04 -5.1 22.8 81 -7.8 17.9
04:15 1019 30.09 848 25.04 -5.1 22.8 81 -7.8 17.9
04:20 1019 30.09 848 25.04 -5.1 22.8 82 -7.8 18
04:25 1019 30.09 848 25.04 -5.1 22.8 81 -7.9 17.8
04:30 1019 30.09 848 25.04 -4.9 23.1 79 -8 17.6
04:35 1019 30.09 848 25.04 -4.8 23.4 76 -8.4 16.9
04:40 1019 30.09 848 25.04 -4.5 23.8 74 -8.5 16.7
04:45 1019 30.09 848 25.04 -4.5 24 74 -8.4 17
04:50 1019 30.09 848 25.04 -4.4 24 75 -8.3 17.1
04:55 1019 30.09 848 25.04 -4.4 24.1 73 -8.5 16.7
05:00 1019 30.09 848 25.04 -4.4 24.1 73 -8.6 16.6
05:05 1019 30.09 848 25.04 -4.4 24.1 73 -8.6 16.6
05:10 1019 30.09 848 25.04 -4.4 24.1 72 -8.6 16.5
05:15 1019 30.09 848 25.04 -4.4 24.1 72 -8.7 16.4
05:20 1019 30.09 848 25.04 -4.3 24.2 72 -8.7 16.4
05:25 1019 30.09 848 25.04 -4.4 24.1 73 -8.6 16.5
05:30 1019 30.09 848 25.04 -4.5 24 74 -8.3 17
05:35 1019 30.09 848 25.04 -4.6 23.7 76 -8.3 17
05:40 1019 30.09 848 25.04 -4.8 23.4 78 -8.1 17.4
05:45 1019 30.09 848 25.04 -4.9 23.2 77 -8.3 17.1
05:50 1019 30.09 848 25.04 -4.9 23.1 78 -8.2 17.3
05:55 1019 30.09 848 25.04 -5 23 79 -8.1 17.5
06:00 1019 30.09 848 25.04 -5 23 79 -8.1 17.4
06:05 1019 30.09 848 25.04 -5 23 80 -8 17.6
06:10 1019 30.09 849 25.07 -5 22.9 80 -8 17.5
06:15 1019 30.09 849 25.07 -5.1 22.9 79 -8.1 17.4
06:20 1019 30.09 849 25.07 -5.2 22.6 79 -8.3 17
06:25 1019 30.09 849 25.07 -5.4 22.3 79 -8.5 16.8
06:30 1019 30.09 849 25.07 -5.5 22.1 77 -8.9 16.1
06:35 1019 30.09 849 25.07 -5.6 21.9 77 -9.1 15.6
06:40 1019 30.09 849 25.07 -5.8 21.6 77 -9.1 15.6
06:45 1019 30.09 849 25.07 -6 21.2 76 -9.6 14.7
06:50 1019 30.09 849 25.07 -6.2 20.8 77 -9.7 14.6
06:55 1019 30.09 849 25.07 -6.7 20 78 -10 14.1
07:00 1019 30.09 849 25.07 -6.6 20.2 77 -10 14
07:05 1019 30.09 849 25.07 -6.3 20.7 75 -10 14
07:10 1019 30.09 849 25.07 -6.4 20.5 77 -9.8 14.4
07:15 1019 30.09 849 25.07 -6.8 19.7 79 -9.9 14.1
07:20 1019 30.09 849 25.07 -6.6 20.1 77 -9.9 14.1
07:25 1019 30.09 849 25.07 -6.4 20.5 76 -10 14
07:30 1019 30.09 849 25.07 -6.6 20.1 78 -9.9 14.2
07:35 1019 30.09 849 25.07 -6.8 19.7 78 -10.1 13.8
07:40 1019 30.09 849 25.07 -6.9 19.6 76 -10.4 13.3
07:45 1019 30.09 849 25.07 -6.5 20.2 75 -10.3 13.4
07:50 1019 30.09 849 25.07 -6.7 19.9 75 -10.4 13.3
07:55 1019 30.09 849 25.07 -7.3 18.9 76 -10.8 12.6
08:00 1020 30.12 849 25.07 -7.1 19.3 75 -10.9 12.4
08:05 1020 30.12 849 25.07 -6.9 19.7 74 -10.7 12.8
08:10 1020 30.12 849 25.07 -7.1 19.3 76 -10.6 13
08:15 1020 30.12 849 25.07 -7.3 18.9 77 -10.6 13
08:20 1020 30.12 849 25.07 -7.5 18.5 78 -10.7 12.7
08:25 1020 30.12 849 25.07 -7.7 18.2 79 -10.7 12.8
08:30 1020 30.12 849 25.07 -7.5 18.5 78 -10.7 12.8
08:35 1020 30.12 849 25.07 -7.7 18.1 77 -11.1 12.1
08:40 1020 30.12 849 25.07 -7.6 18.4 74 -11.3 11.6
08:45 1020 30.12 849 25.07 -7.5 18.6 75 -11.2 11.9
08:50 1020 30.12 849 25.07 -7.4 18.6 75 -11.1 12
08:55 1020 30.12 849 25.07 -7.3 18.9 74 -11.1 12
09:00 1020 30.12 849 25.07 -7.1 19.3 73 -11.2 11.8
09:05 1020 30.12 849 25.07 -6.7 20 70 -11.2 11.9
09:10 1020 30.12 849 25.07 -6.6 20.1 71 -11 12.2
09:15 1020 30.12 849 25.07 -6.5 20.3 69 -11.2 11.8
09:20 1020 30.12 850 25.1 -6.4 20.5 69 -11.1 12
09:25 1020 30.12 850 25.1 -5.8 21.5 67 -11 12.2
09:30 1020 30.12 850 25.1 -5.7 21.7 66 -11.1 12
09:35 1020 30.12 850 25.1 -5.5 22.1 65 -11.1 12
09:40 1020 30.12 850 25.1 -5.2 22.6 65 -10.9 12.4
09:45 1020 30.12 850 25.1 -5 23 63 -11 12.2
09:50 1020 30.12 850 25.1 -5.3 22.6 63 -11.2 11.8
09:55 1020 30.12 850 25.1 -4.7 23.5 61 -11.2 11.9
10:00 1020 30.12 850 25.1 -3.9 24.9 58 -11.1 12.1
10:05 1020 30.12 849 25.07 -3.4 25.8 58 -10.6 13
10:10 1020 30.12 849 25.07 -3.1 26.4 57 -10.5 13.1
10:15 1020 30.12 849 25.07 -3.3 26 57 -10.6 12.9
10:20 1020 30.12 849 25.07 -2.8 27 55 -10.7 12.7
10:25 1020 30.12 849 25.07 -2.3 27.8 53 -10.6 13
10:30 1020 30.12 849 25.07 -2 28.4 52 -10.6 12.9
10:35 1020 30.12 849 25.07 -1.9 28.6 50 -11 12.1
10:40 1020 30.12 849 25.07 -2.2 28.1 52 -10.8 12.5
10:45 1020 30.12 849 25.07 -1.9 28.6 50 -11 12.2
10:50 1020 30.12 849 25.07 -2 28.4 51 -10.8 12.5
10:55 1020 30.12 849 25.07 -1.8 28.8 51 -10.7 12.8
11:00 1020 30.12 849 25.07 -1.6 29 49 -10.9 12.4
11:05 1020 30.12 849 25.07 -1.9 28.5 52 -10.6 13
11:10 1020 30.12 849 25.07 -1.1 30.1 48 -10.6 12.9
11:15 1020 30.12 849 25.07 -1.2 29.9 49 -10.5 13.1
11:20 1020 30.12 849 25.07 -2.3 27.9 49 -11.6 11.1
11:25 1020 30.12 849 25.07 -1.5 29.3 45 -11.9 10.6
11:30 1020 30.12 849 25.07 -0.5 31.1 42 -11.8 10.7
11:35 1020 30.12 849 25.07 -1.6 29.1 49 -10.9 12.4
11:40 1020 30.12 849 25.07 -1.6 29.1 50 -10.8 12.5
11:45 1020 30.12 849 25.07 -0.9 30.3 48 -10.6 12.9
11:50 1020 30.12 849 25.07 -0.7 30.7 48 -10.5 13
11:55 1020 30.12 849 25.07 -1.6 29.2 51 -10.4 13.3
12:00 1020 30.12 849 25.07 -1 30.2 46 -11.2 11.8
12:05 1020 30.12 849 25.07 -0.3 31.4 48 -10 14
12:10 1020 30.12 849 25.07 0.2 32.3 44 -10.7 12.7
12:15 1020 30.12 849 25.07 0.7 33.3 41 -11 12.2
12:20 1020 30.12 849 25.07 0.8 33.4 42 -10.6 12.8
12:25 1020 30.12 849 25.07 0.8 33.4 42 -10.8 12.5
12:30 1020 30.12 849 25.07 0.8 33.4 41 -11.2 11.9
12:35 1020 30.12 849 25.07 1.4 34.5 36 -12 10.4
12:40 1020 30.12 849 25.07 1.3 34.3 38 -11.4 11.5
12:45 1020 30.12 849 25.07 1.4 34.5 40 -10.9 12.4
12:50 1020 30.12 849 25.07 1.4 34.5 40 -10.9 12.4
12:55 1020 30.12 849 25.07 1.9 35.4 36 -11.7 11
13:00 1020 30.12 849 25.07 2.2 36 38 -10.8 12.6
13:05 1019 30.09 849 25.07 1.6 34.9 39 -11 12.2
13:10 1019 30.09 849 25.07 1.2 34.2 38 -11.7 11
13:15 1019 30.09 849 25.07 1.9 35.4 35 -11.9 10.7
13:20 1019 30.09 849 25.07 2.4 36.3 38 -10.4 13.3
13:25 1019 30.09 849 25.07 2.5 36.5 34 -11.8 10.7
13:30 1019 30.09 848 25.04 1.8 35.3 39 -10.8 12.5
13:35 1019 30.09 848 25.04 1.8 35.3 39 -10.6 13
13:40 1019 30.09 848 25.04 1.9 35.4 35 -12 10.4
13:45 1019 30.09 848 25.04 2.1 35.8 37 -11.3 11.7
13:50 1019 30.09 848 25.04 2 35.7 39 -10.4 13.3
13:55 1019 30.09 848 25.04 1.6 34.9 38 -11.2 11.8
14:00 1019 30.09 848 25.04 1.4 34.5 39 -11 12.2
14:05 1019 30.09 848 25.04 1.4 34.6 40 -10.9 12.4
14:10 1019 30.09 848 25.04 1.4 34.6 39 -11.1 12.1
14:15 1019 30.09 848 25.04 1.2 34.1 41 -10.8 12.5
14:20 1019 30.09 848 25.04 1.2 34.2 40 -11.1 12
14:25 1019 30.09 848 25.04 1.1 34 39 -11.3 11.6
14:30 1019 30.09 848 25.04 1.2 34.1 41 -10.8 12.6
14:35 1019 30.09 848 25.04 1.2 34.1 41 -10.8 12.5
14:40 1019 30.09 848 25.04 1.1 33.9 39 -11.3 11.7
14:45 1019 30.09 848 25.04 1.1 34 40 -11.2 11.9
14:50 1019 30.09 848 25.04 1 33.9 39 -11.5 11.3
14:55 1019 30.09 848 25.04 1 33.8 39 -11.5 11.2
15:00 1019 30.09 848 25.04 1.1 34.1 39 -11.5 11.4
15:05 1019 30.09 848 25.04 1.3 34.4 37 -12 10.5
15:10 1019 30.09 848 25.04 1.4 34.6 38 -11.4 11.5
15:15 1019 30.09 848 25.04 1.3 34.4 40 -10.9 12.4
15:20 1019 30.09 848 25.04 0.4 32.8 49 -9.2 15.5
15:25 1018 30.06 848 25.04 0.3 32.6 50 -9 15.8
15:30 1018 30.06 848 25.04 0.7 33.3 48 -9 15.8
15:35 1018 30.06 848 25.04 1.2 34.1 46 -9.3 15.3
15:40 1018 30.06 848 25.04 1.4 34.5 44 -9.5 14.9
15:45 1018 30.06 848 25.04 1.4 34.5 45 -9.3 15.2
15:50 1018 30.06 848 25.04 1.5 34.8 37 -11.8 10.8
15:55 1018 30.06 848 25.04 1.5 34.7 36 -12 10.5
16:00 1018 30.06 848 25.04 1.3 34.4 36 -12.2 10
16:05 1018 30.06 848 25.04 1.2 34.2 38 -11.6 11.2
16:10 1018 30.06 848 25.04 0.8 33.5 36 -12.6 9.4
16:15 1018 30.06 848 25.04 1.2 34.1 36 -12.5 9.5
16:20 1018 30.06 848 25.04 1.5 34.7 35 -12.4 9.7
16:25 1018 30.06 848 25.04 1.5 34.8 40 -10.5 13.1
16:30 1018 30.06 848 25.04 1.1 34 47 -8.9 15.9
16:35 1018 30.06 848 25.04 0.7 33.2 47 -9.4 15
16:40 1018 30.06 848 25.04 0.5 32.9 50 -8.9 16.1
16:45 1018 30.06 848 25.04 0.3 32.5 49 -9.2 15.5
16:50 1018 30.06 848 25.04 0.2 32.3 51 -8.7 16.3
16:55 1018 30.06 848 25.04 0 32 50 -9.2 15.5
17:00 1018 30.06 848 25.04 0.1 32.2 48 -9.7 14.5
17:05 1019 30.09 848 25.04 0.3 32.6 50 -8.8 16.1
17:10 1018 30.06 848 25.04 0.2 32.4 50 -9 15.8
17:15 1019 30.09 848 25.04 0.1 32.2 53 -8.4 16.9
17:20 1019 30.09 848 25.04 -0.1 31.9 51 -9.1 15.7
17:25 1019 30.09 848 25.04 0 32 49 -9.4 15.2
17:30 1019 30.09 848 25.04 0 32 49 -9.6 14.8
17:35 1019 30.09 848 25.04 0.1 32.2 51 -8.9 16
17:40 1019 30.09 848 25.04 0.1 32.1 49 -9.5 14.8
17:45 1019 30.09 848 25.04 0 32.1 50 -9.2 15.5
17:50 1019 30.09 848 25.04 -0.1 31.8 53 -8.6 16.5
17:55 1019 30.09 848 25.04 -0 31.9 49 -9.5 14.9
18:00 1019 30.09 848 25.04 0.1 32.2 51 -8.9 15.9
18:05 1019 30.09 848 25.04 0.2 32.4 49 -9.3 15.2
18:10 1019 30.09 848 25.04 0.2 32.4 50 -9.1 15.6
18:15 1019 30.09 848 25.04 0.1 32.2 50 -9.2 15.5
18:20 1019 30.09 848 25.04 0.1 32.1 50 -9.1 15.7
18:25 1019 30.09 848 25.04 0.2 32.4 52 -8.6 16.6
18:30 1019 30.09 848 25.04 0.3 32.5 42 -11.2 11.9
18:35 1019 30.09 848 25.04 0.8 33.4 48 -9.2 15.5
18:40 1019 30.09 848 25.04 0.9 33.6 45 -9.9 14.2
18:45 1019 30.09 848 25.04 1 33.7 44 -10.1 13.9
18:50 1019 30.09 848 25.04 0.8 33.4 48 -9.1 15.7
18:55 1019 30.09 848 25.04 0.7 33.2 50 -8.7 16.4
19:00 1019 30.09 848 25.04 0.8 33.5 49 -8.6 16.5
19:05 1019 30.09 848 25.04 0.9 33.6 54 -7.5 18.5
19:10 1019 30.09 848 25.04 0.6 33.1 64 -5.4 22.2
19:15 1019 30.09 848 25.04 0.3 32.5 65 -5.5 22.1
19:20 1019 30.09 848 25.04 0.1 32.3 67 -5.4 22.4
19:25 1019 30.09 848 25.04 0.1 32.1 68 -5.2 22.6
19:30 1019 30.09 848 25.04 -0 32 69 -5 22.9
19:35 1019 30.09 848 25.04 -0 32 68 -5.2 22.7
19:40 1019 30.09 848 25.04 0 32.1 68 -5.3 22.5
19:45 1019 30.09 848 25.04 0 32.1 65 -5.7 21.8
19:50 1019 30.09 848 25.04 0 32.1 68 -5.2 22.6
19:55 1019 30.09 848 25.04 -0.1 31.9 68 -5.2 22.6
20:00 1019 30.09 848 25.04 -0.1 31.8 69 -5.2 22.7
20:05 1019 30.09 848 25.04 -0.2 31.6 70 -5 22.9
20:10 1019 30.09 848 25.04 -0.3 31.4 71 -4.9 23.1
20:15 1019 30.09 848 25.04 -0.4 31.3 72 -4.9 23.2
20:20 1019 30.09 848 25.04 -0.4 31.3 72 -4.9 23.2
20:25 1019 30.09 848 25.04 -0.4 31.3 71 -5 23.1
20:30 1019 30.09 848 25.04 -0.4 31.2 72 -4.9 23.2
20:35 1019 30.09 848 25.04 -0.5 31.1 72 -4.9 23.3
20:40 1019 30.09 848 25.04 -0.5 31.1 72 -4.9 23.1
20:45 1019 30.09 848 25.04 -0.5 31 72 -4.9 23.2
20:50 1019 30.09 848 25.04 -0.5 31.2 72 -4.9 23.2
20:55 1019 30.09 848 25.04 -0.5 31 73 -4.8 23.4
21:00 1019 30.09 848 25.04 -0.5 31.1 73 -4.7 23.5
21:05 1019 30.09 848 25.04 -0.5 31.2 73 -4.7 23.5
21:10 1019 30.09 848 25.04 -0.4 31.3 73 -4.6 23.7
21:15 1019 30.09 848 25.04 -0.5 31.2 71 -5 23
21:20 1019 30.09 848 25.04 -0.3 31.5 69 -5.2 22.6
21:25 1019 30.09 849 25.07 -0.1 31.8 72 -4.6 23.6
21:30 1019 30.09 849 25.07 -0.2 31.6 71 -4.8 23.4
21:35 1019 30.09 849 25.07 -0.2 31.6 73 -4.6 23.7
21:40 1019 30.09 849 25.07 -0.3 31.5 72 -4.7 23.5
21:45 1019 30.09 849 25.07 -0.2 31.6 71 -4.9 23.2
21:50 1019 30.09 849 25.07 -0.2 31.7 72 -4.6 23.7
21:55 1019 30.09 849 25.07 -0.1 31.8 72 -4.6 23.7
22:00 1019 30.09 849 25.07 -0.1 31.9 70 -5 23.1
22:05 1019 30.09 849 25.07 0.1 32.1 70 -4.8 23.4
22:10 1019 30.09 849 25.07 -0 32 71 -4.7 23.6
22:15 1019 30.09 849 25.07 -0.2 31.7 71 -4.8 23.4
22:20 1019 30.09 849 25.07 -0.1 31.8 70 -4.9 23.2
22:25 1019 30.09 849 25.07 -0.2 31.7 71 -4.8 23.3
22:30 1019 30.09 849 25.07 -0.2 31.7 69 -5.1 22.8
22:35 1019 30.09 849 25.07 -0.1 31.9 69 -5 22.9
22:40 1019 30.09 849 25.07 -0 31.9 75 -4 24.8
22:45 1019 30.09 849 25.07 -0 32 76 -3.7 25.3
22:50 1019 30.09 849 25.07 -0 31.9 76 -3.7 25.4
22:55 1019 30.09 849 25.07 0.1 32.1 75 -3.9 25
23:00 1019 30.09 849 25.07 0.1 32.2 75 -3.9 25
23:05 1019 30.09 848 25.04 0.2 32.3 75 -3.8 25.2
23:10 1019 30.09 848 25.04 0.2 32.3 76 -3.6 25.5
23:15 1019 30.09 848 25.04 0.1 32.2 75 -3.8 25.1
23:20 1019 30.09 848 25.04 0 32 77 -3.6 25.5
23:25 1019 30.09 849 25.07 -0.3 31.5 77 -3.9 25.1
23:30 1019 30.09 849 25.07 -0.4 31.3 75 -4.2 24.4
23:35 1019 30.09 849 25.07 -0.3 31.5 74 -4.4 24
23:40 1019 30.09 849 25.07 -0.1 31.8 71 -4.7 23.5
23:45 1019 30.09 849 25.07 -0.1 31.9 70 -4.8 23.3
23:50 1019 30.09 849 25.07 -0 31.9 71 -4.8 23.4
23:55 1019 30.09 849 25.07 0.1 32.2 70 -4.8 23.4
24:00 1019 30.09 848 25.04 0.2 32.3 69 -4.8 23.3